Home   Weather   Mayhill   Past weeks
Flag for USA

Past Weather in Mayhill, New Mexico, USA — Yesterday and Last 2 Weeks

Currently: 57 °F. Clear. (Weather station: Alamogordo-White, USA). See more current weather

Past Weather in Mayhill — Graph

°F

Mayhill Temperature Yesterday

Maximum temperature yesterday: 88 °F (at 3:55 pm)
Minimum temperature yesterday: 64 °F (at 5:55 am)
Average temperature yesterday: 76 °F

High & Low Weather Summary for the Past Weeks

 TemperatureHumidityPressure
High93 °F (May 7, 3:15 pm)100% (Apr 29, 11:55 pm)30.34 "Hg (Apr 29, 11:55 pm)
Low39 °F (Apr 29, 3:35 am)4% (May 2, 3:55 pm)29.61 "Hg (May 2, 5:15 pm)
Average67 °F30%29.98 "Hg
* Reported Apr 24 4:15 am — May 9 4:55 am, Mayhill. Weather by CustomWeather, © 2021

Note: Actual official high and low records may vary slightly from our data, if they occured in-between our weather recording intervals... More about our weather records

Mayhill Weather History for the Previous 24 Hours

Scroll right to see more
 ConditionsComfort  
Time TempWeatherWind HumidityBarometerVisibility
4:55 am
Sun, May 9
55 °FClear.8 mph18%29.93 "Hg10 mi
4:35 am55 °FClear.No wind16%29.93 "Hg10 mi
4:15 am54 °FClear.8 mph18%29.92 "Hg10 mi
3:55 am54 °FClear.8 mph19%29.92 "Hg10 mi
3:35 am54 °FClear.5 mph16%29.92 "Hg10 mi
3:15 am55 °FClear.5 mph15%29.92 "Hg10 mi
2:55 am59 °FClear.3 mph13%29.92 "Hg10 mi
2:35 am59 °FClear.No wind13%29.92 "Hg10 mi
2:15 am57 °FClear.No wind14%29.92 "Hg10 mi
1:55 am59 °FClear.3 mph12%29.92 "Hg10 mi
1:35 am61 °FClear.No wind11%29.93 "Hg10 mi
1:15 am64 °FClear.3 mph10%29.93 "Hg10 mi
12:55 am59 °FClear.No wind14%29.93 "Hg10 mi
12:35 am66 °FClear.No wind9%29.93 "Hg10 mi
12:15 am61 °FClear.3 mph13%29.92 "Hg10 mi
11:55 pm
Sat, May 8
66 °FClear.5 mph10%29.92 "Hg10 mi
11:35 pm64 °FClear.7 mph10%29.92 "Hg10 mi
11:15 pm66 °FClear.6 mph9%29.92 "Hg10 mi
10:55 pm72 °FClear.No wind7%29.91 "Hg10 mi
10:35 pm70 °FClear.5 mph8%29.91 "Hg10 mi
10:15 pm66 °FClear.6 mph10%29.90 "Hg10 mi
9:55 pm68 °FClear.6 mph9%29.89 "Hg10 mi
9:35 pm70 °FClear.6 mph9%29.88 "Hg10 mi
9:15 pm70 °FClear.6 mph8%29.87 "Hg10 mi
8:55 pm72 °FClear.7 mph8%29.86 "Hg10 mi
8:35 pm75 °FClear.8 mph6%29.86 "Hg10 mi
8:15 pm77 °FClear.12 mph5%29.85 "Hg10 mi
7:35 pm81 °FSunny.13 mph5%29.83 "Hg10 mi
6:55 pm84 °FSunny.20 mph4%29.82 "Hg10 mi
6:35 pm84 °FSunny.21 mph4%29.81 "Hg10 mi
6:15 pm84 °FSunny.20 mph5%29.82 "Hg10 mi
5:55 pm86 °FSunny.18 mph4%29.82 "Hg10 mi
5:35 pm86 °FSunny.18 mph4%29.82 "Hg10 mi
5:15 pm86 °FSunny.23 mph4%29.82 "Hg10 mi
4:55 pm86 °FSunny.21 mph5%29.82 "Hg10 mi
4:35 pm86 °FSunny.15 mph4%29.83 "Hg10 mi
4:15 pm88 °FSunny.18 mph4%29.83 "Hg10 mi
3:55 pm88 °FSunny.20 mph4%29.84 "Hg10 mi
3:35 pm86 °FSunny.17 mph5%29.85 "Hg10 mi
3:15 pm86 °FSunny.20 mph5%29.85 "Hg10 mi
2:55 pm86 °FSunny.22 mph6%29.86 "Hg10 mi
2:35 pm86 °FSunny.13 mph6%29.87 "Hg10 mi
2:15 pm86 °FSunny.16 mph6%29.88 "Hg10 mi
1:55 pm86 °FSunny.13 mph6%29.88 "Hg10 mi
1:35 pm84 °FSunny.10 mph6%29.89 "Hg10 mi
1:15 pm84 °FSunny.18 mph6%29.90 "Hg10 mi
12:55 pm84 °FSunny.16 mph6%29.91 "Hg10 mi
12:35 pm82 °FSunny.13 mph6%29.92 "Hg10 mi
12:15 pm82 °FSunny.15 mph6%29.93 "Hg10 mi
11:55 am82 °FSunny.8 mph7%29.94 "Hg10 mi
11:35 am82 °FSunny.18 mph8%29.94 "Hg10 mi
11:15 am81 °FSunny.6 mph9%29.95 "Hg10 mi
10:55 am81 °FSunny.16 mph9%29.95 "Hg10 mi
10:35 am81 °FSunny.9 mph9%29.96 "Hg10 mi
10:15 am81 °FSunny.9 mph10%29.96 "Hg10 mi
9:55 am79 °FSunny.7 mph15%29.97 "Hg10 mi
9:35 am77 °FSunny.7 mph18%29.96 "Hg10 mi
9:15 am77 °FSunny.10 mph19%29.96 "Hg10 mi
8:55 am75 °FSunny.9 mph22%29.96 "Hg10 mi
8:35 am73 °FSunny.12 mph25%29.96 "Hg10 mi
8:15 am72 °FSunny.13 mph33%29.96 "Hg10 mi
7:35 am68 °FSunny.13 mph40%29.95 "Hg10 mi
7:15 am66 °FSunny.13 mph43%29.95 "Hg10 mi
6:55 am64 °FSunny.10 mph46%29.93 "Hg2 mi
6:35 am64 °FSunny.13 mph49%29.93 "Hg10 mi
6:15 am64 °FSunny.10 mph49%29.92 "Hg10 mi
5:55 am64 °FClear.13 mph49%29.92 "Hg10 mi
5:35 am66 °FClear.13 mph46%29.92 "Hg10 mi
5:15 am68 °FClear.10 mph43%29.92 "Hg10 mi
Weather by CustomWeather, © 2021

See weather overview